Eduardo Ríos

Olheiro-Chefe - Tigre
23 Out 2027
Sábado
Processo

Personalidade

Adaptabilidade (15) Ambição (3) Controvérsia (5) Lealdade (6) Pressão (12) Profissionalismo (12) Espírito Esportivo (1) Temperamento (5)

Perfil

Estilo de Treinamento Democrático
Licença Continental Pro
Determinação 8
Gestão de Pessoas 10
Motivação 5
Disciplina 9
Satisfação no Trabalho
100%
Fadiga
0%
Função Olheiro-Chefe
Salário 41.3K p/s
Contrato 14.03.2029

Desempenho

Comportamento Bom
Eficácia do Treinamento
44%
Desenvolvimento do Jogador
65%
Prevenção de Lesões
50%
Implementação Tática
40%

Eventos Recentes

Participou de uma reunião de recrutamento agora
Recomendou um alvo de transferência agora
Recomendou um alvo de transferência agora
Recomendou um alvo de transferência agora
Recomendou um alvo de transferência agora
Recomendou um alvo de transferência 7d atrás
Recomendou um alvo de transferência 7d atrás
Recomendou um alvo de transferência 7d atrás

Monitorando agora

189
Jogador Clube Status Habilidade Confiança Observado Última observação Último voto
Facundo Balatti Penarol Negociando 109 / 103 40% 1 19.07.2027 -
Othmane Maamma Watford Ativo 127 / 141 40% 1 19.07.2027 -
Jeremías Merlo AC Milan Ativo 114 / 138 40% 3 12.07.2027 -
Sidiki Chérif Coventry City Ativo 134 / 124 40% 2 12.07.2027 -
Konstantin Tyukavin Arsenal Negociando 132 / 133 66% 1 01.06.2027 Aprovar
Patrick Berg Borussia Mönchengladbach Negociando 141 / 141 62% 1 01.06.2027 Aprovar
Lautaro Gutiérrez Girona Ativo 105 / 114 40% 3 31.05.2027 -
Jay Robinson Southampton Ativo 126 / 121 40% 1 31.05.2027 -
Yehor Yarmoliuk Brentford Ativo 145 / 143 40% 3 29.05.2027 -
Adam Randell Bristol City Ativo 123 / 124 40% 1 29.05.2027 -
Max Bird Birmingham Ativo 138 / 124 40% 7 28.05.2027 -
Adama Goïta Remo Stars Ativo 81 / 102 40% 1 28.05.2027 -
Guille Rosas Gijón Ativo 144 / 144 40% 1 26.05.2027 -
Brooke Norton-Cuffy Hull City Ativo 144 / 142 40% 3 25.05.2027 -
Jacques Ekomié Wrexham Ativo 128 / 136 40% 4 25.05.2027 -
Florentino Luís Ipswich Town Ativo 136 / 131 40% 6 24.05.2027 -
Ramón Terrats Getafe Ativo 145 / 133 40% 8 24.05.2027 -
Facundo Di Biasi Getafe Ativo 120 / 132 40% 1 24.05.2027 -
Tariq Lamptey Queens Park Rangers Ativo 144 / 126 40% 6 23.05.2027 -
Nathan Collins Brentford Ativo 142 / 154 40% 8 23.05.2027 -
Andre Brooks Sheffield United Ativo 135 / 133 40% 1 23.05.2027 -
Nestory Irankunda Watford Ativo 124 / 121 40% 1 22.05.2027 -
Daniel Kyerewaa Reading Ativo 116 / 114 40% 1 21.05.2027 -
Roger François Udinese Ativo 152 / 145 40% 2 19.05.2027 -
José Córdoba Norwich City Ativo 132 / 117 40% 2 18.05.2027 -
Luke McNally Bristol City Ativo 138 / 128 40% 2 17.05.2027 -
Ethan Pye Stockport County Ativo 110 / 125 40% 2 16.05.2027 -
Mikkel Damsgaard Brentford Ativo 150 / 151 40% 1 16.05.2027 -
Sindre Walle Egeli Nottingham Forest Ativo 140 / 124 40% 1 15.05.2027 -
Riley Owen Wycombe Wanderers Ativo 99 / 100 40% 1 15.05.2027 -
Rico Lewis Manchester City Ativo 154 / 148 40% 1 14.05.2027 -
Max Conway Bolton Wanderers Ativo 125 / 121 40% 4 13.05.2027 -
Christos Mouzakitis Hull City Ativo 129 / 129 40% 1 13.05.2027 -
Emile Smith Rowe Fulham Ativo 161 / 145 40% 3 11.05.2027 -
Agustín Hausch Caracas Ativo 126 / 134 40% 1 11.05.2027 -
Ignacio Perruzzi Celta Ativo 127 / 127 40% 1 10.05.2027 -
Sam Curtis Swindon Town Ativo 98 / 115 40% 1 09.05.2027 -
Tim Iroegbunam Hull City Ativo 146 / 144 40% 5 08.05.2027 -
Bosun Lawal Stoke City Ativo 123 / 120 40% 1 08.05.2027 -
Tyrell Malacia Derby County Ativo 145 / 146 40% 3 07.05.2027 -
Ryan Sessegnon Fulham Ativo 153 / 136 40% 4 07.05.2027 -
Matías Gómez Valencia Ativo 112 / 118 40% 3 07.05.2027 -
Lander Astiazarán Real Sociedad Ativo 112 / 122 40% 3 07.05.2027 -
Ethan Galbraith Swansea City Ativo 128 / 128 40% 3 06.05.2027 -
Isma Ruiz Córdoba Ativo 139 / 119 40% 3 05.05.2027 -
Mfundo Vilakazi Kaizer Chiefs Ativo 121 / 140 40% 3 05.05.2027 -
Alex Verón Villarreal Ativo 112 / 111 40% 1 05.05.2027 -
André Wolverhampton Ativo 144 / 137 40% 2 04.05.2027 -
Jordan Beyer Burnley Ativo 132 / 132 40% 2 03.05.2027 -
Oliver Skipp Leicester City Ativo 137 / 141 40% 4 02.05.2027 -
Enzo Barrenechea Burnley Ativo 158 / 147 40% 7 30.04.2027 -
Ricardo Solbes Getafe Ativo 92 / 107 40% 2 29.04.2027 -
Diogo Guzmán Montevideo City Torque Ativo 110 / 108 40% 1 29.04.2027 -
Neco Williams Nottingham Forest Ativo 135 / 151 40% 1 29.04.2027 -
Milan van Ewijk Coventry City Ativo 140 / 133 40% 1 28.04.2027 -
Welington Southampton Ativo 128 / 135 40% 4 25.04.2027 -
Jonathan De Irastorza Levante Ativo 121 / 112 40% 7 23.04.2027 -
Daniel Awuni Aduana Stars Ativo 109 / 108 40% 1 23.04.2027 -
Jacob Greaves Ipswich Town Ativo 132 / 129 40% 4 22.04.2027 -
Oumar Camara Vitoria Guimaraes Ativo 114 / 139 40% 2 22.04.2027 -
Nobel Mendy Hull City Ativo 134 / 137 40% 1 22.04.2027 -
Álex Valle Como Ativo 142 / 151 40% 2 16.04.2027 -
Shea Lacey Millwall Ativo 120 / 135 40% 1 16.04.2027 -
James Morris Leyton Orient Ativo 127 / 118 40% 3 14.04.2027 -
Harry Clarke Preston Ativo 119 / 138 40% 3 11.04.2027 -
Loum Tchaouna Coventry City Ativo 128 / 149 40% 1 11.04.2027 -
Raoul Bellanova Atalanta Ativo 155 / 152 40% 2 08.04.2027 -
Adrien Truffert Bournemouth Ativo 151 / 144 40% 3 04.04.2027 -
Manu Rodríguez Gijón Ativo 113 / 107 40% 1 03.04.2027 -
Ousmane Diakité West Bromwich Albion Ativo 133 / 127 40% 1 01.04.2027 -
Rumarn Burrell Queens Park Rangers Ativo 119 / 129 40% 4 31.03.2027 -
Juanlu Bournemouth Ativo 154 / 153 40% 4 31.03.2027 -
Luca Orellano Atlético Madrid Ativo 145 / 128 40% 1 31.03.2027 -
Borna Knezović Casarano Ativo 108 / 104 40% 1 29.03.2027 -
Lamine Cissé Peterborough United Ativo 114 / 129 40% 1 28.03.2027 -
Luca Bastilla Levante Ativo 98 / 106 40% 1 27.03.2027 -
Kellen Fisher Norwich City Ativo 121 / 130 40% 1 21.03.2027 -
Christian Krasnodar Ativo 141 / 120 40% 1 18.03.2027 -
Murillo Nottingham Forest Ativo 144 / 146 40% 1 18.03.2027 -
Gorka Gorosabel Real Sociedad Ativo 103 / 125 40% 1 16.03.2027 -
Koki Saito Queens Park Rangers Ativo 119 / 122 40% 1 15.03.2027 -
Callum Doyle Wrexham Ativo 132 / 130 40% 1 12.03.2027 -
Cian Ashford Cardiff City Ativo 111 / 109 40% 1 11.03.2027 -
Alfie Doughty Millwall Ativo 138 / 136 40% 1 11.03.2027 -
Camilo Durán Bloemfontein Celtic Ativo 105 / 126 40% 1 07.03.2027 -
Max Johnston Derby County Ativo 137 / 127 40% 3 04.03.2027 -
Imrân Louza Watford Ativo 132 / 142 40% 1 04.03.2027 -
Habib Diarra Sunderland Ativo 148 / 142 40% 1 03.03.2027 -
Matías Pérez Queens Park Rangers Ativo 76 / 86 40% 1 03.03.2027 -
Shea Charles Southampton Ativo 134 / 126 40% 2 25.02.2027 -
Helinho Toluca Ativo 130 / 130 40% 1 20.02.2027 -
Nazar Voloshyn Dynamo Kyiv Ativo 138 / 116 40% 1 14.02.2027 -
Ronald Swansea City Ativo 135 / 138 40% 1 14.02.2027 -
Bobby Thomas Coventry City Ativo 132 / 140 40% 1 13.02.2027 -
Tobías Modlin Dorados Ativo 64 / 86 40% 1 10.02.2027 -
Kayne Ramsay Charlton Athletic Ativo 136 / 130 40% 2 08.02.2027 -
Alex Scott Bournemouth Ativo 159 / 146 40% 1 06.02.2027 -
Isaiah Jones Luton Town Ativo 125 / 117 40% 1 04.02.2027 -
Edoardo Bove Watford Ativo 124 / 133 40% 1 02.02.2027 -
Aaron Hickey Brentford Ativo 142 / 137 40% 1 02.02.2027 -
Federico Gattoni Ascoli Ativo 124 / 125 40% 1 01.02.2027 -
Toni Fruk Valladolid Negociando 132 / 133 66% 1 01.12.2026 Aprovar
Pedro de la Vega Leganés Ativo 133 / 134 66% 1 01.12.2026 Aprovar
Mao Hosoya Manchester City Negociando 134 / 135 67% 1 01.12.2026 Aprovar
Thulani Billiat Utrecht Ativo 136 / 136 61% 1 01.12.2026 Aprovar
Emiliano Saliadarre Miramar Misiones Ativo 119 / 123 40% 5 30.11.2026 -
Leandro Godoy CSKA Sofia Ativo 135 / 129 40% 1 30.11.2026 -
Tommy Conway Middlesbrough Ativo 133 / 115 40% 1 28.11.2026 -
Xavier Biscayzacú Sporting CP Ativo 136 / 130 40% 1 27.11.2026 -
Bautista Tomatis Racing Ativo 104 / 100 40% 3 26.11.2026 -
Agustín Venezia Iquique Ativo 103 / 123 40% 4 24.11.2026 -
Marin Benko Zadar Ativo 128 / 115 40% 1 24.11.2026 -
Julián Brea Cobresal Ativo 103 / 103 40% 2 23.11.2026 -
Santiago Pierotti Lecce Ativo 132 / 117 40% 1 19.11.2026 -
Santiago Sala Güemes Ativo 115 / 101 40% 3 18.11.2026 -
Tadeo Allende Inter Miami CF Ativo 114 / 114 40% 2 17.11.2026 -
Francisco Bonfiglio Boston River Ativo 99 / 121 40% 1 14.11.2026 -
Iván Tapia Barracas Central Ativo 123 / 120 40% 1 14.11.2026 -
Damián Fernández Defensa y Justicia Ativo 121 / 138 40% 1 14.11.2026 -
Mariano Gómez Ferencvaros Ativo 117 / 105 40% 3 12.11.2026 -
Ammar Ramadan DAC Dunajska Streda Ativo 140 / 131 40% 2 12.11.2026 -
Rodrigo Herrera Newell's Old Boys Ativo 130 / 117 40% 1 12.11.2026 -
Tomás Escalante Plaza Colonia Ativo 111 / 125 40% 2 10.11.2026 -
Tomás Chancalay Minnesota United FC Ativo 131 / 118 40% 1 10.11.2026 -
Gonzalo Luján Inter Miami CF Ativo 112 / 109 40% 4 08.11.2026 -
Francisco Álvarez Argentinos Juniors Ativo 113 / 110 40% 1 08.11.2026 -
Mateo Mendoza Godoy Cruz Ativo 131 / 134 40% 2 07.11.2026 -
Rodrigo González Aldosivi Ativo 132 / 132 40% 2 03.11.2026 -
Facundo Batista Penarol Ativo 127 / 110 40% 2 31.10.2026 -
Enzo Cabrera AE Kition Ativo 127 / 94 40% 1 23.10.2026 -
Nicolás Romero Minnesota United FC Ativo 113 / 146 40% 1 22.10.2026 -
Marcos López San Martín Ativo 124 / 130 40% 1 22.10.2026 -
Leandro Lozano Boca Juniors Ativo 113 / 137 40% 2 21.10.2026 -
Martín Ojeda Orlando City Ativo 140 / 133 40% 1 20.10.2026 -
Nahuel Herrera Penarol Ativo 128 / 133 40% 3 16.10.2026 -
Luca Langoni New England Revolution Ativo 124 / 150 40% 3 16.10.2026 -
Lucas Agazzi Defensor Sporting Ativo 110 / 125 40% 4 14.10.2026 -
Tomás Alarcón Colo-Colo Ativo 121 / 126 40% 1 14.10.2026 -
Elías Báez Atlanta United FC Ativo 137 / 130 40% 1 11.10.2026 -
Enzo Cabrera Danubio Ativo 98 / 114 40% 1 10.10.2026 -
Diego Sánchez Progreso Ativo 107 / 93 40% 1 08.10.2026 -
César Ibáñez Huracán Ativo 112 / 122 40% 1 07.10.2026 -
Dejan Joveljić Seattle Sounders Ativo 117 / 110 40% 1 02.10.2026 -
Agustín Paz Progreso Ativo 112 / 112 40% 2 01.10.2026 -
Alejandro Piedrahita Deportivo Pereira Ativo 126 / 133 40% 1 30.09.2026 -
Kelvin Yeboah Minnesota United FC Ativo 139 / 136 40% 1 28.09.2026 -
Florián Monzón Atlas Ativo 133 / 128 40% 1 28.09.2026 -
Troy Parrott Betis Ativo 134 / 131 40% 1 27.09.2026 -
Favio Cabral Mitre Ativo 105 / 104 40% 1 26.09.2026 -
Lucas Acosta Liverpool Montevideo Ativo 100 / 118 40% 2 25.09.2026 -
Nicolás Cordero Aldosivi Ativo 107 / 108 40% 1 25.09.2026 -
Cristian Barros Cerro Ativo 106 / 106 40% 1 24.09.2026 -
Alexis Gutiérrez Club America Ativo 107 / 126 40% 1 23.09.2026 -
Diego Hernández Aguilas Doradas Ativo 124 / 120 40% 1 21.09.2026 -
Sergio Barreto Pachuca Ativo 127 / 143 40% 1 20.09.2026 -
Lucas Souto Defensa y Justicia Ativo 127 / 129 40% 1 20.09.2026 -
Augusto Schott Talleres Ativo 117 / 124 40% 1 18.09.2026 -
Emiliano Álvarez Progreso Ativo 113 / 122 40% 1 17.09.2026 -
Joaquín García Vélez Ativo 117 / 130 40% 1 17.09.2026 -
Bruno Amione Santos Laguna Ativo 102 / 138 40% 1 13.09.2026 -
Facundo de León Progreso Ativo 102 / 124 40% 1 12.09.2026 -
Franco Pérez Boston River Ativo 107 / 115 40% 1 12.09.2026 -
Pablo Ruiz Real Salt Lake Ativo 101 / 115 40% 1 11.09.2026 -
Alejo Cruz Juventud Ativo 118 / 120 40% 1 09.09.2026 -
Maximiliano Rodríguez Huachipato Ativo 106 / 102 40% 1 07.09.2026 -
Mauro Valiente Chiapas Ativo 129 / 90 40% 1 07.09.2026 -
Jaime Mora Envigado Ativo 96 / 109 40% 2 03.09.2026 -
Nicolás Campisi Sportivo Luqueno Ativo 124 / 109 40% 6 30.08.2026 -
Lucas Machado Defensor Sporting Ativo 91 / 105 40% 2 29.08.2026 -
Rodrigo Morínigo Libertad Ativo 124 / 126 40% 1 29.08.2026 -
Nicolás Forastiero Deportivo Maldonado Ativo 104 / 105 40% 1 27.08.2026 -
Federico Varese Racing Ativo 98 / 107 40% 2 26.08.2026 -
Omar Carabalí O'Higgins Ativo 109 / 103 40% 1 26.08.2026 -
Cristopher Varela Deportivo La Guaira Ativo 111 / 121 40% 1 25.08.2026 -
Weibmar Asprilla Independiente Medellin Ativo 115 / 115 40% 1 24.08.2026 -
Víctor Cabezas Union Magdalena Ativo 122 / 122 40% 1 23.08.2026 -
Agustín Lastra Estudiantes Ativo 113 / 122 40% 1 22.08.2026 -
Mauro Silveira Junior Ativo 119 / 115 40% 1 19.08.2026 -
Adriano Freitas Deportivo Maldonado Ativo 96 / 111 40% 2 16.08.2026 -
Agustín Requena Progreso Ativo 102 / 111 40% 1 16.08.2026 -
Facundo Cambeses Racing Club Ativo 131 / 118 40% 1 15.08.2026 -
Roameth Romaña Llaneros Ativo 104 / 90 40% 1 14.08.2026 -
Matías Dufour Sportivo Trinidense Ativo 116 / 98 40% 1 14.08.2026 -
Beycker Velásquez Zamora Ativo 112 / 93 40% 1 13.08.2026 -
Andrés Samurio Tacuarembo Ativo 113 / 115 40% 1 11.08.2026 -
Juan Moreno La Luz Ativo 123 / 124 40% 1 10.08.2026 -
Gonzalo Falcón Cienciano Ativo 107 / 113 40% 1 07.08.2026 -
Andres Duque Universitario Popayan Ativo 89 / 118 40% 1 05.08.2026 -
Ángel Fortuño Espanyol Ativo 112 / 123 40% 1 01.08.2026 -